sensor_id;sensor_type;location;lat;lon;timestamp;temperature;humidity
51383;DHT22;37475;43.358;1.248;2023-06-14T00:01:57;17.50;96.50
51383;DHT22;37475;43.358;1.248;2023-06-14T00:04:23;17.50;96.50
51383;DHT22;37475;43.358;1.248;2023-06-14T00:06:50;17.50;96.50
51383;DHT22;37475;43.358;1.248;2023-06-14T00:09:16;17.50;96.50
51383;DHT22;37475;43.358;1.248;2023-06-14T00:11:45;17.50;96.50
51383;DHT22;37475;43.358;1.248;2023-06-14T00:14:10;17.50;96.60
51383;DHT22;37475;43.358;1.248;2023-06-14T00:16:36;17.50;96.50
51383;DHT22;37475;43.358;1.248;2023-06-14T00:19:04;17.50;96.50
51383;DHT22;37475;43.358;1.248;2023-06-14T00:21:33;17.50;96.60
51383;DHT22;37475;43.358;1.248;2023-06-14T00:23:59;17.50;96.60
51383;DHT22;37475;43.358;1.248;2023-06-14T00:26:25;17.50;96.60
51383;DHT22;37475;43.358;1.248;2023-06-14T00:28:52;17.50;96.60
51383;DHT22;37475;43.358;1.248;2023-06-14T00:31:18;17.50;96.60
51383;DHT22;37475;43.358;1.248;2023-06-14T00:33:44;17.50;96.70
51383;DHT22;37475;43.358;1.248;2023-06-14T00:36:10;17.50;96.70
51383;DHT22;37475;43.358;1.248;2023-06-14T00:38:36;17.50;96.70
51383;DHT22;37475;43.358;1.248;2023-06-14T00:41:02;17.50;96.70
51383;DHT22;37475;43.358;1.248;2023-06-14T00:43:27;17.50;96.80
51383;DHT22;37475;43.358;1.248;2023-06-14T00:45:53;17.40;96.80
51383;DHT22;37475;43.358;1.248;2023-06-14T00:48:19;17.40;96.80
51383;DHT22;37475;43.358;1.248;2023-06-14T00:50:45;17.40;96.80
51383;DHT22;37475;43.358;1.248;2023-06-14T00:53:14;17.50;96.90
51383;DHT22;37475;43.358;1.248;2023-06-14T00:55:43;17.40;96.80
51383;DHT22;37475;43.358;1.248;2023-06-14T00:58:09;17.50;96.90
51383;DHT22;37475;43.358;1.248;2023-06-14T01:00:36;17.50;96.90
51383;DHT22;37475;43.358;1.248;2023-06-14T01:03:02;17.40;96.70
51383;DHT22;37475;43.358;1.248;2023-06-14T01:05:29;17.50;96.80
51383;DHT22;37475;43.358;1.248;2023-06-14T01:08:21;17.40;96.70
51383;DHT22;37475;43.358;1.248;2023-06-14T01:11:05;17.50;96.80
51383;DHT22;37475;43.358;1.248;2023-06-14T01:13:43;17.50;96.80
51383;DHT22;37475;43.358;1.248;2023-06-14T01:16:10;17.50;96.70
51383;DHT22;37475;43.358;1.248;2023-06-14T01:18:37;17.50;96.80
51383;DHT22;37475;43.358;1.248;2023-06-14T01:21:03;17.50;96.70
51383;DHT22;37475;43.358;1.248;2023-06-14T01:23:34;17.50;96.70
51383;DHT22;37475;43.358;1.248;2023-06-14T01:26:00;17.50;96.60
51383;DHT22;37475;43.358;1.248;2023-06-14T01:28:29;17.50;96.70
51383;DHT22;37475;43.358;1.248;2023-06-14T01:31:00;17.50;96.70
51383;DHT22;37475;43.358;1.248;2023-06-14T01:33:31;17.60;96.70
51383;DHT22;37475;43.358;1.248;2023-06-14T01:35:59;17.50;96.60
51383;DHT22;37475;43.358;1.248;2023-06-14T01:38:26;17.50;96.60
51383;DHT22;37475;43.358;1.248;2023-06-14T01:40:55;17.60;96.50
51383;DHT22;37475;43.358;1.248;2023-06-14T01:43:22;17.60;96.40
51383;DHT22;37475;43.358;1.248;2023-06-14T01:45:50;17.70;96.40
51383;DHT22;37475;43.358;1.248;2023-06-14T01:48:16;17.70;96.40
51383;DHT22;37475;43.358;1.248;2023-06-14T01:50:42;17.70;96.40
51383;DHT22;37475;43.358;1.248;2023-06-14T01:53:09;17.70;96.30
51383;DHT22;37475;43.358;1.248;2023-06-14T01:55:35;17.70;96.30
51383;DHT22;37475;43.358;1.248;2023-06-14T01:58:03;17.70;96.30
51383;DHT22;37475;43.358;1.248;2023-06-14T02:00:30;17.80;96.40
51383;DHT22;37475;43.358;1.248;2023-06-14T02:02:56;17.80;96.30
51383;DHT22;37475;43.358;1.248;2023-06-14T02:05:22;17.70;96.40
51383;DHT22;37475;43.358;1.248;2023-06-14T02:07:49;17.70;96.30
51383;DHT22;37475;43.358;1.248;2023-06-14T02:10:16;17.70;96.50
51383;DHT22;37475;43.358;1.248;2023-06-14T02:12:43;17.70;96.60
51383;DHT22;37475;43.358;1.248;2023-06-14T02:15:09;17.70;96.60
51383;DHT22;37475;43.358;1.248;2023-06-14T02:17:42;17.70;96.60
51383;DHT22;37475;43.358;1.248;2023-06-14T02:20:09;17.70;96.60
51383;DHT22;37475;43.358;1.248;2023-06-14T02:22:35;17.70;96.70
51383;DHT22;37475;43.358;1.248;2023-06-14T02:25:01;17.70;96.50
51383;DHT22;37475;43.358;1.248;2023-06-14T02:27:26;17.70;96.50
51383;DHT22;37475;43.358;1.248;2023-06-14T02:29:52;17.80;96.50
51383;DHT22;37475;43.358;1.248;2023-06-14T02:32:18;17.80;96.40
51383;DHT22;37475;43.358;1.248;2023-06-14T02:34:44;17.80;96.40
51383;DHT22;37475;43.358;1.248;2023-06-14T02:37:09;17.80;96.30
51383;DHT22;37475;43.358;1.248;2023-06-14T02:39:36;17.80;96.30
51383;DHT22;37475;43.358;1.248;2023-06-14T02:42:02;17.80;96.30
51383;DHT22;37475;43.358;1.248;2023-06-14T02:44:29;17.80;96.30
51383;DHT22;37475;43.358;1.248;2023-06-14T02:46:55;17.80;96.30
51383;DHT22;37475;43.358;1.248;2023-06-14T02:49:21;17.80;96.30
51383;DHT22;37475;43.358;1.248;2023-06-14T02:51:48;17.80;96.20
51383;DHT22;37475;43.358;1.248;2023-06-14T02:54:14;17.90;96.20
51383;DHT22;37475;43.358;1.248;2023-06-14T02:56:39;17.80;96.10
51383;DHT22;37475;43.358;1.248;2023-06-14T02:59:06;17.90;96.20
51383;DHT22;37475;43.358;1.248;2023-06-14T03:01:33;17.90;96.20
51383;DHT22;37475;43.358;1.248;2023-06-14T03:04:07;17.90;96.30
51383;DHT22;37475;43.358;1.248;2023-06-14T03:06:33;17.90;96.20
51383;DHT22;37475;43.358;1.248;2023-06-14T03:09:00;17.80;96.20
51383;DHT22;37475;43.358;1.248;2023-06-14T03:11:29;17.90;96.20
51383;DHT22;37475;43.358;1.248;2023-06-14T03:13:56;17.90;96.20
51383;DHT22;37475;43.358;1.248;2023-06-14T03:16:22;17.90;96.10
51383;DHT22;37475;43.358;1.248;2023-06-14T03:18:50;17.90;96.10
51383;DHT22;37475;43.358;1.248;2023-06-14T03:21:20;17.90;96.00
51383;DHT22;37475;43.358;1.248;2023-06-14T03:23:47;17.90;96.00
51383;DHT22;37475;43.358;1.248;2023-06-14T03:26:14;17.90;96.10
51383;DHT22;37475;43.358;1.248;2023-06-14T03:28:43;17.90;96.10
51383;DHT22;37475;43.358;1.248;2023-06-14T03:31:11;17.80;96.00
51383;DHT22;37475;43.358;1.248;2023-06-14T03:33:38;17.90;95.90
51383;DHT22;37475;43.358;1.248;2023-06-14T03:36:04;17.90;95.90
51383;DHT22;37475;43.358;1.248;2023-06-14T03:38:30;17.90;95.80
51383;DHT22;37475;43.358;1.248;2023-06-14T03:40:56;17.90;95.80
51383;DHT22;37475;43.358;1.248;2023-06-14T03:43:22;17.90;95.70
51383;DHT22;37475;43.358;1.248;2023-06-14T03:45:48;17.90;95.70
51383;DHT22;37475;43.358;1.248;2023-06-14T03:48:14;17.80;95.70
51383;DHT22;37475;43.358;1.248;2023-06-14T03:50:40;17.80;95.60
51383;DHT22;37475;43.358;1.248;2023-06-14T03:53:08;17.80;95.60
51383;DHT22;37475;43.358;1.248;2023-06-14T03:55:34;17.80;95.60
51383;DHT22;37475;43.358;1.248;2023-06-14T03:58:00;17.80;95.60
51383;DHT22;37475;43.358;1.248;2023-06-14T04:00:26;17.90;95.50
51383;DHT22;37475;43.358;1.248;2023-06-14T04:02:52;17.90;95.50
51383;DHT22;37475;43.358;1.248;2023-06-14T04:05:19;17.80;95.30
51383;DHT22;37475;43.358;1.248;2023-06-14T04:07:46;17.90;95.30
51383;DHT22;37475;43.358;1.248;2023-06-14T04:10:14;17.90;95.20
51383;DHT22;37475;43.358;1.248;2023-06-14T04:12:41;17.90;95.30
51383;DHT22;37475;43.358;1.248;2023-06-14T04:15:08;17.80;95.10
51383;DHT22;37475;43.358;1.248;2023-06-14T04:17:35;17.80;95.00
51383;DHT22;37475;43.358;1.248;2023-06-14T04:20:03;17.90;95.00
51383;DHT22;37475;43.358;1.248;2023-06-14T04:22:31;17.90;95.00
51383;DHT22;37475;43.358;1.248;2023-06-14T04:24:57;17.80;95.00
51383;DHT22;37475;43.358;1.248;2023-06-14T04:27:23;17.80;95.00
51383;DHT22;37475;43.358;1.248;2023-06-14T04:29:54;17.80;95.00
51383;DHT22;37475;43.358;1.248;2023-06-14T04:32:25;17.90;95.10
51383;DHT22;37475;43.358;1.248;2023-06-14T04:34:58;17.90;95.10
51383;DHT22;37475;43.358;1.248;2023-06-14T04:37:25;17.80;95.10
51383;DHT22;37475;43.358;1.248;2023-06-14T04:39:54;17.80;95.00
51383;DHT22;37475;43.358;1.248;2023-06-14T04:42:21;17.90;95.20
51383;DHT22;37475;43.358;1.248;2023-06-14T04:44:51;17.90;95.10
51383;DHT22;37475;43.358;1.248;2023-06-14T04:47:20;17.90;95.20
51383;DHT22;37475;43.358;1.248;2023-06-14T04:49:46;17.80;95.30
51383;DHT22;37475;43.358;1.248;2023-06-14T04:52:13;17.90;95.30
51383;DHT22;37475;43.358;1.248;2023-06-14T04:54:39;17.80;95.10
51383;DHT22;37475;43.358;1.248;2023-06-14T04:57:09;17.90;95.10
51383;DHT22;37475;43.358;1.248;2023-06-14T04:59:39;17.80;95.00
51383;DHT22;37475;43.358;1.248;2023-06-14T05:02:05;17.90;95.10
51383;DHT22;37475;43.358;1.248;2023-06-14T05:04:32;17.90;95.10
51383;DHT22;37475;43.358;1.248;2023-06-14T05:06:58;17.90;94.90
51383;DHT22;37475;43.358;1.248;2023-06-14T05:09:24;17.90;94.70
51383;DHT22;37475;43.358;1.248;2023-06-14T05:11:50;18.00;95.00
51383;DHT22;37475;43.358;1.248;2023-06-14T05:14:16;17.90;94.70
51383;DHT22;37475;43.358;1.248;2023-06-14T05:16:43;18.00;94.90
51383;DHT22;37475;43.358;1.248;2023-06-14T05:19:09;18.00;95.00
51383;DHT22;37475;43.358;1.248;2023-06-14T05:21:36;17.90;95.00
51383;DHT22;37475;43.358;1.248;2023-06-14T05:24:02;18.00;95.10
51383;DHT22;37475;43.358;1.248;2023-06-14T05:26:28;18.00;95.00
51383;DHT22;37475;43.358;1.248;2023-06-14T05:28:56;18.00;95.10
51383;DHT22;37475;43.358;1.248;2023-06-14T05:31:25;18.00;95.10
51383;DHT22;37475;43.358;1.248;2023-06-14T05:33:51;18.00;95.10
51383;DHT22;37475;43.358;1.248;2023-06-14T05:36:17;18.00;95.00
51383;DHT22;37475;43.358;1.248;2023-06-14T05:38:44;18.10;94.90
51383;DHT22;37475;43.358;1.248;2023-06-14T05:41:10;18.00;95.00
51383;DHT22;37475;43.358;1.248;2023-06-14T05:43:36;18.10;94.90
51383;DHT22;37475;43.358;1.248;2023-06-14T05:46:02;18.10;94.80
51383;DHT22;37475;43.358;1.248;2023-06-14T05:48:29;18.10;94.80
51383;DHT22;37475;43.358;1.248;2023-06-14T05:50:56;18.10;94.90
51383;DHT22;37475;43.358;1.248;2023-06-14T05:53:22;18.10;94.90
51383;DHT22;37475;43.358;1.248;2023-06-14T05:55:48;18.10;94.80
51383;DHT22;37475;43.358;1.248;2023-06-14T05:58:15;18.10;94.80
51383;DHT22;37475;43.358;1.248;2023-06-14T06:00:41;18.10;95.00
51383;DHT22;37475;43.358;1.248;2023-06-14T06:03:07;18.10;95.00
51383;DHT22;37475;43.358;1.248;2023-06-14T06:05:36;18.10;95.00
51383;DHT22;37475;43.358;1.248;2023-06-14T06:08:02;18.10;95.10
51383;DHT22;37475;43.358;1.248;2023-06-14T06:10:28;18.20;95.00
51383;DHT22;37475;43.358;1.248;2023-06-14T06:12:54;18.20;95.00
51383;DHT22;37475;43.358;1.248;2023-06-14T06:15:20;18.20;95.00
51383;DHT22;37475;43.358;1.248;2023-06-14T06:17:46;18.10;95.00
51383;DHT22;37475;43.358;1.248;2023-06-14T06:20:12;18.20;95.10
51383;DHT22;37475;43.358;1.248;2023-06-14T06:22:38;18.20;95.10
51383;DHT22;37475;43.358;1.248;2023-06-14T06:25:05;18.20;95.10
51383;DHT22;37475;43.358;1.248;2023-06-14T06:27:31;18.20;95.20
51383;DHT22;37475;43.358;1.248;2023-06-14T06:29:57;18.20;95.00
51383;DHT22;37475;43.358;1.248;2023-06-14T06:32:23;18.30;94.80
51383;DHT22;37475;43.358;1.248;2023-06-14T06:34:50;18.30;95.00
51383;DHT22;37475;43.358;1.248;2023-06-14T06:37:15;18.30;94.80
51383;DHT22;37475;43.358;1.248;2023-06-14T06:39:41;18.40;94.80
51383;DHT22;37475;43.358;1.248;2023-06-14T06:42:07;18.40;94.90
51383;DHT22;37475;43.358;1.248;2023-06-14T06:44:33;18.50;94.70
51383;DHT22;37475;43.358;1.248;2023-06-14T06:46:59;18.50;94.60
51383;DHT22;37475;43.358;1.248;2023-06-14T06:49:25;18.50;94.40
51383;DHT22;37475;43.358;1.248;2023-06-14T06:52:06;18.50;94.20
51383;DHT22;37475;43.358;1.248;2023-06-14T06:54:33;18.60;94.20
51383;DHT22;37475;43.358;1.248;2023-06-14T06:57:00;18.60;94.00
51383;DHT22;37475;43.358;1.248;2023-06-14T06:59:27;18.60;93.70
51383;DHT22;37475;43.358;1.248;2023-06-14T07:01:52;18.60;93.60
51383;DHT22;37475;43.358;1.248;2023-06-14T07:04:18;18.70;93.80
51383;DHT22;37475;43.358;1.248;2023-06-14T07:06:45;18.70;93.20
51383;DHT22;37475;43.358;1.248;2023-06-14T07:09:12;18.80;93.50
51383;DHT22;37475;43.358;1.248;2023-06-14T07:11:39;18.80;92.90
51383;DHT22;37475;43.358;1.248;2023-06-14T07:14:06;18.80;93.50
51383;DHT22;37475;43.358;1.248;2023-06-14T07:16:32;18.80;93.30
51383;DHT22;37475;43.358;1.248;2023-06-14T07:18:58;18.80;93.30
51383;DHT22;37475;43.358;1.248;2023-06-14T07:21:24;18.90;93.30
51383;DHT22;37475;43.358;1.248;2023-06-14T07:23:53;18.80;93.10
51383;DHT22;37475;43.358;1.248;2023-06-14T07:26:20;19.00;93.10
51383;DHT22;37475;43.358;1.248;2023-06-14T07:28:47;19.00;93.20
51383;DHT22;37475;43.358;1.248;2023-06-14T07:31:16;19.00;93.10
51383;DHT22;37475;43.358;1.248;2023-06-14T07:33:45;19.00;93.20
51383;DHT22;37475;43.358;1.248;2023-06-14T07:36:11;19.00;92.90
51383;DHT22;37475;43.358;1.248;2023-06-14T07:38:37;19.10;92.90
51383;DHT22;37475;43.358;1.248;2023-06-14T07:41:03;19.10;92.80
51383;DHT22;37475;43.358;1.248;2023-06-14T07:43:29;19.10;92.50
51383;DHT22;37475;43.358;1.248;2023-06-14T07:45:55;19.10;92.60
51383;DHT22;37475;43.358;1.248;2023-06-14T07:48:22;19.10;92.60
51383;DHT22;37475;43.358;1.248;2023-06-14T07:50:48;19.10;92.70
51383;DHT22;37475;43.358;1.248;2023-06-14T07:53:14;19.10;92.20
51383;DHT22;37475;43.358;1.248;2023-06-14T07:55:40;19.20;92.40
51383;DHT22;37475;43.358;1.248;2023-06-14T07:58:07;19.10;92.00
51383;DHT22;37475;43.358;1.248;2023-06-14T08:00:33;19.20;92.30
51383;DHT22;37475;43.358;1.248;2023-06-14T08:02:59;19.30;92.00
51383;DHT22;37475;43.358;1.248;2023-06-14T08:05:26;19.30;92.60
51383;DHT22;37475;43.358;1.248;2023-06-14T08:07:52;19.20;92.00
51383;DHT22;37475;43.358;1.248;2023-06-14T08:10:18;19.30;92.10
51383;DHT22;37475;43.358;1.248;2023-06-14T08:12:45;19.30;91.90
51383;DHT22;37475;43.358;1.248;2023-06-14T08:15:11;19.30;92.10
51383;DHT22;37475;43.358;1.248;2023-06-14T08:17:37;19.40;92.30
51383;DHT22;37475;43.358;1.248;2023-06-14T08:20:03;19.50;92.00
51383;DHT22;37475;43.358;1.248;2023-06-14T08:22:31;19.60;92.40
51383;DHT22;37475;43.358;1.248;2023-06-14T08:24:59;19.50;91.90
51383;DHT22;37475;43.358;1.248;2023-06-14T08:27:27;19.60;92.10
51383;DHT22;37475;43.358;1.248;2023-06-14T08:29:53;19.50;92.00
51383;DHT22;37475;43.358;1.248;2023-06-14T08:32:19;19.60;92.00
51383;DHT22;37475;43.358;1.248;2023-06-14T08:34:45;19.60;92.10
51383;DHT22;37475;43.358;1.248;2023-06-14T08:37:11;19.70;92.10
51383;DHT22;37475;43.358;1.248;2023-06-14T08:39:37;19.60;91.70
51383;DHT22;37475;43.358;1.248;2023-06-14T08:42:04;19.80;91.90
51383;DHT22;37475;43.358;1.248;2023-06-14T08:44:32;19.80;92.20
51383;DHT22;37475;43.358;1.248;2023-06-14T08:47:00;19.90;91.80
51383;DHT22;37475;43.358;1.248;2023-06-14T08:49:26;19.80;91.70
51383;DHT22;37475;43.358;1.248;2023-06-14T08:51:57;19.90;91.40
51383;DHT22;37475;43.358;1.248;2023-06-14T08:54:29;20.00;91.70
51383;DHT22;37475;43.358;1.248;2023-06-14T08:57:03;20.10;91.40
51383;DHT22;37475;43.358;1.248;2023-06-14T08:59:32;20.10;91.40
51383;DHT22;37475;43.358;1.248;2023-06-14T09:02:06;20.10;91.20
51383;DHT22;37475;43.358;1.248;2023-06-14T09:04:32;20.10;90.50
51383;DHT22;37475;43.358;1.248;2023-06-14T09:06:59;20.20;90.80
51383;DHT22;37475;43.358;1.248;2023-06-14T09:09:26;20.20;90.40
51383;DHT22;37475;43.358;1.248;2023-06-14T09:11:52;20.40;90.80
51383;DHT22;37475;43.358;1.248;2023-06-14T09:14:19;20.40;90.90
51383;DHT22;37475;43.358;1.248;2023-06-14T09:16:45;20.20;90.30
51383;DHT22;37475;43.358;1.248;2023-06-14T09:19:24;20.30;90.70
51383;DHT22;37475;43.358;1.248;2023-06-14T09:21:51;20.20;90.40
51383;DHT22;37475;43.358;1.248;2023-06-14T09:24:18;20.30;90.20
51383;DHT22;37475;43.358;1.248;2023-06-14T09:26:48;20.40;89.60
51383;DHT22;37475;43.358;1.248;2023-06-14T09:29:16;20.60;90.00
51383;DHT22;37475;43.358;1.248;2023-06-14T09:31:46;20.60;89.50
51383;DHT22;37475;43.358;1.248;2023-06-14T09:34:13;20.60;88.80
51383;DHT22;37475;43.358;1.248;2023-06-14T09:36:40;20.80;88.10
51383;DHT22;37475;43.358;1.248;2023-06-14T09:39:08;20.90;87.90
51383;DHT22;37475;43.358;1.248;2023-06-14T09:41:41;20.80;87.60
51383;DHT22;37475;43.358;1.248;2023-06-14T09:44:09;20.90;87.70
51383;DHT22;37475;43.358;1.248;2023-06-14T09:46:36;21.10;88.10
51383;DHT22;37475;43.358;1.248;2023-06-14T09:49:04;21.30;88.30
51383;DHT22;37475;43.358;1.248;2023-06-14T09:51:30;21.20;86.90
51383;DHT22;37475;43.358;1.248;2023-06-14T09:54:00;21.20;86.60
51383;DHT22;37475;43.358;1.248;2023-06-14T09:56:35;21.10;86.10
51383;DHT22;37475;43.358;1.248;2023-06-14T09:59:05;21.00;86.40
51383;DHT22;37475;43.358;1.248;2023-06-14T10:01:35;21.00;86.20
51383;DHT22;37475;43.358;1.248;2023-06-14T10:04:07;21.10;85.80
51383;DHT22;37475;43.358;1.248;2023-06-14T10:06:45;21.30;85.60
51383;DHT22;37475;43.358;1.248;2023-06-14T10:09:12;21.30;85.40
51383;DHT22;37475;43.358;1.248;2023-06-14T10:11:38;21.40;86.50
51383;DHT22;37475;43.358;1.248;2023-06-14T10:14:09;21.40;86.20
51383;DHT22;37475;43.358;1.248;2023-06-14T10:19:34;21.40;85.00
51383;DHT22;37475;43.358;1.248;2023-06-14T10:22:36;21.50;84.70
51383;DHT22;37475;43.358;1.248;2023-06-14T10:25:13;21.40;84.80
51383;DHT22;37475;43.358;1.248;2023-06-14T10:27:39;21.50;85.00
51383;DHT22;37475;43.358;1.248;2023-06-14T10:30:11;21.60;85.70
51383;DHT22;37475;43.358;1.248;2023-06-14T10:33:03;21.50;85.30
51383;DHT22;37475;43.358;1.248;2023-06-14T10:35:33;21.50;85.60
51383;DHT22;37475;43.358;1.248;2023-06-14T10:38:11;21.70;85.40
51383;DHT22;37475;43.358;1.248;2023-06-14T10:40:39;21.80;85.40
51383;DHT22;37475;43.358;1.248;2023-06-14T10:43:22;21.60;84.40
51383;DHT22;37475;43.358;1.248;2023-06-14T10:48:43;21.60;84.70
51383;DHT22;37475;43.358;1.248;2023-06-14T10:51:21;21.60;85.00
51383;DHT22;37475;43.358;1.248;2023-06-14T10:53:50;21.80;85.60
51383;DHT22;37475;43.358;1.248;2023-06-14T10:56:29;21.90;83.60
51383;DHT22;37475;43.358;1.248;2023-06-14T10:58:59;22.10;82.90
51383;DHT22;37475;43.358;1.248;2023-06-14T11:01:36;22.20;82.80
51383;DHT22;37475;43.358;1.248;2023-06-14T11:04:12;22.10;84.20
51383;DHT22;37475;43.358;1.248;2023-06-14T11:06:50;22.10;83.00
51383;DHT22;37475;43.358;1.248;2023-06-14T11:12:21;22.60;84.40
51383;DHT22;37475;43.358;1.248;2023-06-14T11:14:48;22.40;82.80
51383;DHT22;37475;43.358;1.248;2023-06-14T11:17:14;22.20;82.50
51383;DHT22;37475;43.358;1.248;2023-06-14T11:19:40;22.20;82.20
51383;DHT22;37475;43.358;1.248;2023-06-14T11:22:05;22.10;81.80
51383;DHT22;37475;43.358;1.248;2023-06-14T11:24:32;22.10;83.50
51383;DHT22;37475;43.358;1.248;2023-06-14T11:26:58;22.30;82.50
51383;DHT22;37475;43.358;1.248;2023-06-14T11:29:24;22.60;82.40
51383;DHT22;37475;43.358;1.248;2023-06-14T11:31:51;22.50;82.30
51383;DHT22;37475;43.358;1.248;2023-06-14T11:34:17;22.40;82.70
51383;DHT22;37475;43.358;1.248;2023-06-14T11:36:43;22.50;82.80
51383;DHT22;37475;43.358;1.248;2023-06-14T11:39:09;22.60;84.00
51383;DHT22;37475;43.358;1.248;2023-06-14T11:41:43;22.70;81.50
51383;DHT22;37475;43.358;1.248;2023-06-14T11:44:10;22.80;81.00
51383;DHT22;37475;43.358;1.248;2023-06-14T11:46:37;22.90;81.10
51383;DHT22;37475;43.358;1.248;2023-06-14T11:49:04;23.00;79.70
51383;DHT22;37475;43.358;1.248;2023-06-14T11:51:33;23.40;78.60
51383;DHT22;37475;43.358;1.248;2023-06-14T11:54:01;23.50;79.50
51383;DHT22;37475;43.358;1.248;2023-06-14T11:56:28;23.30;78.30
51383;DHT22;37475;43.358;1.248;2023-06-14T11:58:55;23.10;78.00
51383;DHT22;37475;43.358;1.248;2023-06-14T12:01:22;22.80;78.70
51383;DHT22;37475;43.358;1.248;2023-06-14T12:03:49;22.70;80.60
51383;DHT22;37475;43.358;1.248;2023-06-14T12:06:16;23.10;79.20
51383;DHT22;37475;43.358;1.248;2023-06-14T12:08:44;23.00;77.50
51383;DHT22;37475;43.358;1.248;2023-06-14T12:11:14;23.20;78.10
51383;DHT22;37475;43.358;1.248;2023-06-14T12:13:41;23.50;77.20
51383;DHT22;37475;43.358;1.248;2023-06-14T12:16:11;23.50;77.20
51383;DHT22;37475;43.358;1.248;2023-06-14T12:18:39;23.20;77.50
51383;DHT22;37475;43.358;1.248;2023-06-14T12:21:07;23.20;78.70
51383;DHT22;37475;43.358;1.248;2023-06-14T12:23:44;23.40;79.30
51383;DHT22;37475;43.358;1.248;2023-06-14T12:26:15;23.80;77.40
51383;DHT22;37475;43.358;1.248;2023-06-14T12:28:44;23.50;78.80
51383;DHT22;37475;43.358;1.248;2023-06-14T12:31:12;23.40;78.40
51383;DHT22;37475;43.358;1.248;2023-06-14T12:33:40;23.40;78.20
51383;DHT22;37475;43.358;1.248;2023-06-14T12:36:08;23.50;77.90
51383;DHT22;37475;43.358;1.248;2023-06-14T12:38:35;23.90;78.00
51383;DHT22;37475;43.358;1.248;2023-06-14T12:41:02;23.80;74.80
51383;DHT22;37475;43.358;1.248;2023-06-14T12:43:28;23.50;77.70
51383;DHT22;37475;43.358;1.248;2023-06-14T12:45:54;23.70;75.70
51383;DHT22;37475;43.358;1.248;2023-06-14T12:48:20;23.90;76.10
51383;DHT22;37475;43.358;1.248;2023-06-14T12:50:47;24.20;76.30
51383;DHT22;37475;43.358;1.248;2023-06-14T12:53:13;23.80;75.30
51383;DHT22;37475;43.358;1.248;2023-06-14T12:55:39;23.70;76.80
51383;DHT22;37475;43.358;1.248;2023-06-14T12:58:06;23.30;77.10
51383;DHT22;37475;43.358;1.248;2023-06-14T13:00:32;23.80;78.10
51383;DHT22;37475;43.358;1.248;2023-06-14T13:02:58;23.80;77.00
51383;DHT22;37475;43.358;1.248;2023-06-14T13:05:24;23.50;76.70
51383;DHT22;37475;43.358;1.248;2023-06-14T13:07:50;23.50;75.40
51383;DHT22;37475;43.358;1.248;2023-06-14T13:10:16;23.90;75.70
51383;DHT22;37475;43.358;1.248;2023-06-14T13:12:43;23.80;76.40
51383;DHT22;37475;43.358;1.248;2023-06-14T13:15:09;24.00;74.10
51383;DHT22;37475;43.358;1.248;2023-06-14T13:17:35;24.40;73.40
51383;DHT22;37475;43.358;1.248;2023-06-14T13:20:07;24.00;74.70
51383;DHT22;37475;43.358;1.248;2023-06-14T13:22:34;24.40;73.60
51383;DHT22;37475;43.358;1.248;2023-06-14T13:25:01;24.40;73.40
51383;DHT22;37475;43.358;1.248;2023-06-14T13:27:28;24.50;74.50
51383;DHT22;37475;43.358;1.248;2023-06-14T13:29:54;24.50;75.00
51383;DHT22;37475;43.358;1.248;2023-06-14T13:32:23;24.40;76.60
51383;DHT22;37475;43.358;1.248;2023-06-14T13:34:49;24.40;73.70
51383;DHT22;37475;43.358;1.248;2023-06-14T13:37:15;24.30;75.70
51383;DHT22;37475;43.358;1.248;2023-06-14T13:39:41;24.40;74.20
51383;DHT22;37475;43.358;1.248;2023-06-14T13:42:07;24.60;73.70
51383;DHT22;37475;43.358;1.248;2023-06-14T13:44:33;24.00;75.80
51383;DHT22;37475;43.358;1.248;2023-06-14T13:46:59;24.10;73.40
51383;DHT22;37475;43.358;1.248;2023-06-14T13:49:25;23.80;74.80
51383;DHT22;37475;43.358;1.248;2023-06-14T13:51:51;23.80;74.30
51383;DHT22;37475;43.358;1.248;2023-06-14T13:54:19;23.80;75.20
51383;DHT22;37475;43.358;1.248;2023-06-14T13:56:46;24.10;74.90
51383;DHT22;37475;43.358;1.248;2023-06-14T13:59:12;24.00;75.20
51383;DHT22;37475;43.358;1.248;2023-06-14T14:01:39;23.80;75.50
51383;DHT22;37475;43.358;1.248;2023-06-14T14:04:05;23.70;75.40
51383;DHT22;37475;43.358;1.248;2023-06-14T14:06:31;24.00;74.90
51383;DHT22;37475;43.358;1.248;2023-06-14T14:08:57;23.80;75.00
51383;DHT22;37475;43.358;1.248;2023-06-14T14:11:23;24.10;74.20
51383;DHT22;37475;43.358;1.248;2023-06-14T14:13:49;23.80;73.70
51383;DHT22;37475;43.358;1.248;2023-06-14T14:16:15;23.90;76.20
51383;DHT22;37475;43.358;1.248;2023-06-14T14:18:41;24.30;75.30
51383;DHT22;37475;43.358;1.248;2023-06-14T14:21:07;24.20;72.70
51383;DHT22;37475;43.358;1.248;2023-06-14T14:23:33;23.70;75.00
51383;DHT22;37475;43.358;1.248;2023-06-14T14:25:58;23.50;76.00
51383;DHT22;37475;43.358;1.248;2023-06-14T14:28:28;23.70;74.70
51383;DHT22;37475;43.358;1.248;2023-06-14T14:30:54;23.80;75.50
51383;DHT22;37475;43.358;1.248;2023-06-14T14:33:20;23.30;75.20
51383;DHT22;37475;43.358;1.248;2023-06-14T14:35:46;23.60;75.00
51383;DHT22;37475;43.358;1.248;2023-06-14T14:38:15;23.70;73.50
51383;DHT22;37475;43.358;1.248;2023-06-14T14:40:42;23.90;75.10
51383;DHT22;37475;43.358;1.248;2023-06-14T14:43:09;23.90;74.00
51383;DHT22;37475;43.358;1.248;2023-06-14T14:45:35;23.70;73.70
51383;DHT22;37475;43.358;1.248;2023-06-14T14:48:01;23.70;73.90
51383;DHT22;37475;43.358;1.248;2023-06-14T14:50:28;23.70;74.70
51383;DHT22;37475;43.358;1.248;2023-06-14T14:52:54;24.10;75.00
51383;DHT22;37475;43.358;1.248;2023-06-14T14:55:20;24.30;73.20
51383;DHT22;37475;43.358;1.248;2023-06-14T14:57:46;24.60;72.90
51383;DHT22;37475;43.358;1.248;2023-06-14T15:00:13;24.50;70.90
51383;DHT22;37475;43.358;1.248;2023-06-14T15:02:39;24.40;73.00
51383;DHT22;37475;43.358;1.248;2023-06-14T15:05:06;23.80;73.20
51383;DHT22;37475;43.358;1.248;2023-06-14T15:07:32;23.80;72.80
51383;DHT22;37475;43.358;1.248;2023-06-14T15:09:59;23.90;74.00
51383;DHT22;37475;43.358;1.248;2023-06-14T15:12:25;23.80;73.10
51383;DHT22;37475;43.358;1.248;2023-06-14T15:14:52;24.00;73.70
51383;DHT22;37475;43.358;1.248;2023-06-14T15:17:19;23.70;75.00
51383;DHT22;37475;43.358;1.248;2023-06-14T15:19:46;23.50;75.60
51383;DHT22;37475;43.358;1.248;2023-06-14T15:22:13;23.50;75.50
51383;DHT22;37475;43.358;1.248;2023-06-14T15:24:41;23.70;74.30
51383;DHT22;37475;43.358;1.248;2023-06-14T15:27:07;23.80;75.40
51383;DHT22;37475;43.358;1.248;2023-06-14T15:29:34;23.60;74.20
51383;DHT22;37475;43.358;1.248;2023-06-14T15:32:03;23.10;74.20
51383;DHT22;37475;43.358;1.248;2023-06-14T15:34:31;23.10;76.20
51383;DHT22;37475;43.358;1.248;2023-06-14T15:36:57;23.00;76.80
51383;DHT22;37475;43.358;1.248;2023-06-14T15:39:23;23.10;76.10
51383;DHT22;37475;43.358;1.248;2023-06-14T15:41:50;23.20;76.30